sensor_id;sensor_type;location;lat;lon;timestamp;pressure;altitude;pressure_sealevel;temperature;humidity
54459;BME280;40368;49.350;8.152;2023-02-22T00:00:15;1001.1;;;11.44;52.44
54459;BME280;40368;49.350;8.152;2023-02-22T00:03:15;1001.1;;;11.45;52.56
54459;BME280;40368;49.350;8.152;2023-02-22T00:05:14;1001;;;11.47;52.24
54459;BME280;40368;49.350;8.152;2023-02-22T00:07:14;1001.1;;;11.58;52.53
54459;BME280;40368;49.350;8.152;2023-02-22T00:08:14;1001.1;;;11.66;52.28
54459;BME280;40368;49.350;8.152;2023-02-22T00:09:14;1001.1;;;11.7;51.77
54459;BME280;40368;49.350;8.152;2023-02-22T00:10:34;1001.1;;;11.69;51.78
54459;BME280;40368;49.350;8.152;2023-02-22T00:11:10;1001.1;;;11.67;52.27
54459;BME280;40368;49.350;8.152;2023-02-22T00:12:32;1001.1;;;11.67;51.86
54459;BME280;40368;49.350;8.152;2023-02-22T00:13:46;1001.1;;;11.74;52.5
54459;BME280;40368;49.350;8.152;2023-02-22T00:15:01;1001.1;;;11.78;51.89
54459;BME280;40368;49.350;8.152;2023-02-22T00:16:33;1001.1;;;11.85;52.36
54459;BME280;40368;49.350;8.152;2023-02-22T00:17:10;1001.1;;;11.97;51.74
54459;BME280;40368;49.350;8.152;2023-02-22T00:18:27;1001.1;;;12.15;51.42
54459;BME280;40368;49.350;8.152;2023-02-22T00:19:14;1001;;;12.22;51.26
54459;BME280;40368;49.350;8.152;2023-02-22T00:20:14;1001;;;12.28;51.18
54459;BME280;40368;49.350;8.152;2023-02-22T00:22:14;1001;;;12.34;50.62
54459;BME280;40368;49.350;8.152;2023-02-22T00:23:15;1001;;;12.36;50.54
54459;BME280;40368;49.350;8.152;2023-02-22T00:24:51;1001;;;12.37;50.6
54459;BME280;40368;49.350;8.152;2023-02-22T00:25:47;1001;;;12.37;50.54
54459;BME280;40368;49.350;8.152;2023-02-22T00:27:01;1001;;;12.35;50.49
54459;BME280;40368;49.350;8.152;2023-02-22T00:28:15;1001;;;12.38;50.53
54459;BME280;40368;49.350;8.152;2023-02-22T00:29:47;1001;;;12.4;50.7
54459;BME280;40368;49.350;8.152;2023-02-22T00:30:28;1001;;;12.4;50.65
54459;BME280;40368;49.350;8.152;2023-02-22T00:31:40;1001;;;12.45;50.73
54459;BME280;40368;49.350;8.152;2023-02-22T00:32:18;1001;;;12.48;50.22
54459;BME280;40368;49.350;8.152;2023-02-22T00:33:14;1001;;;12.48;50.48
54459;BME280;40368;49.350;8.152;2023-02-22T00:34:37;1001;;;12.49;50.26
54459;BME280;40368;49.350;8.152;2023-02-22T00:35:53;1001;;;12.51;50.46
54459;BME280;40368;49.350;8.152;2023-02-22T00:37:07;1001;;;12.52;50.49
54459;BME280;40368;49.350;8.152;2023-02-22T00:38:21;1000.9;;;12.54;49.9
54459;BME280;40368;49.350;8.152;2023-02-22T00:39:35;1001;;;12.57;49.75
54459;BME280;40368;49.350;8.152;2023-02-22T00:41:08;1001;;;12.48;49.87
54459;BME280;40368;49.350;8.152;2023-02-22T00:41:28;1001;;;12.53;49.91
54459;BME280;40368;49.350;8.152;2023-02-22T00:42:05;1000.9;;;12.44;50.11
54459;BME280;40368;49.350;8.152;2023-02-22T00:42:42;1000.9;;;12.43;50.05
54459;BME280;40368;49.350;8.152;2023-02-22T00:43:19;1000.9;;;12.4;50.16
54459;BME280;40368;49.350;8.152;2023-02-22T00:44:14;1000.9;;;12.35;49.9
54459;BME280;40368;49.350;8.152;2023-02-22T00:45:15;1000.9;;;12.26;50.25
54459;BME280;40368;49.350;8.152;2023-02-22T00:46:14;1000.8;;;12.21;50.46
54459;BME280;40368;49.350;8.152;2023-02-22T00:47:14;1000.8;;;12.17;50.2
54459;BME280;40368;49.350;8.152;2023-02-22T00:48:14;1000.9;;;12.1;50.25
54459;BME280;40368;49.350;8.152;2023-02-22T00:49:14;1000.9;;;12;50.94
54459;BME280;40368;49.350;8.152;2023-02-22T00:50:14;1000.9;;;11.99;50.74
54459;BME280;40368;49.350;8.152;2023-02-22T00:51:14;1000.9;;;11.97;50.67
54459;BME280;40368;49.350;8.152;2023-02-22T00:53:14;1000.8;;;11.86;50.94
54459;BME280;40368;49.350;8.152;2023-02-22T00:54:14;1000.9;;;11.8;51.17
54459;BME280;40368;49.350;8.152;2023-02-22T00:55:15;1000.8;;;11.74;51.13
54459;BME280;40368;49.350;8.152;2023-02-22T00:56:14;1000.9;;;11.72;51.46
54459;BME280;40368;49.350;8.152;2023-02-22T00:57:14;1000.8;;;11.66;51.68
54459;BME280;40368;49.350;8.152;2023-02-22T00:58:14;1000.8;;;11.64;51.42
54459;BME280;40368;49.350;8.152;2023-02-22T01:02:14;1000.8;;;11.67;51.43
54459;BME280;40368;49.350;8.152;2023-02-22T01:03:15;1000.8;;;11.65;51.75
54459;BME280;40368;49.350;8.152;2023-02-22T01:04:14;1000.8;;;11.65;51.71
54459;BME280;40368;49.350;8.152;2023-02-22T01:05:14;1000.8;;;11.62;51.19
54459;BME280;40368;49.350;8.152;2023-02-22T01:06:14;1000.8;;;11.64;51.85
54459;BME280;40368;49.350;8.152;2023-02-22T01:07:14;1000.8;;;11.65;51.55
54459;BME280;40368;49.350;8.152;2023-02-22T01:08:15;1000.7;;;11.65;51.08
54459;BME280;40368;49.350;8.152;2023-02-22T01:10:14;1000.7;;;11.68;51.21
54459;BME280;40368;49.350;8.152;2023-02-22T01:12:14;1000.7;;;11.64;51.57
54459;BME280;40368;49.350;8.152;2023-02-22T01:13:14;1000.7;;;11.65;51.46
54459;BME280;40368;49.350;8.152;2023-02-22T01:14:32;1000.7;;;11.68;51.49
54459;BME280;40368;49.350;8.152;2023-02-22T01:15:46;1000.7;;;11.65;51.34
54459;BME280;40368;49.350;8.152;2023-02-22T01:17:01;1000.7;;;11.58;50.98
54459;BME280;40368;49.350;8.152;2023-02-22T01:18:15;1000.7;;;11.48;51.35
54459;BME280;40368;49.350;8.152;2023-02-22T01:19:29;1000.7;;;11.41;51.45
54459;BME280;40368;49.350;8.152;2023-02-22T01:20:09;1000.7;;;11.36;51.82
54459;BME280;40368;49.350;8.152;2023-02-22T01:20:45;1000.7;;;11.41;52.19
54459;BME280;40368;49.350;8.152;2023-02-22T01:21:22;1000.6;;;11.45;51.63
54459;BME280;40368;49.350;8.152;2023-02-22T01:22:14;1000.7;;;11.49;51.32
54459;BME280;40368;49.350;8.152;2023-02-22T01:23:14;1000.6;;;11.45;51.58
54459;BME280;40368;49.350;8.152;2023-02-22T01:25:15;1000.6;;;11.32;52.16
54459;BME280;40368;49.350;8.152;2023-02-22T01:26:14;1000.6;;;11.3;52.39
54459;BME280;40368;49.350;8.152;2023-02-22T01:27:14;1000.6;;;11.31;52.17
54459;BME280;40368;49.350;8.152;2023-02-22T01:28:14;1000.6;;;11.31;52.46
54459;BME280;40368;49.350;8.152;2023-02-22T01:29:14;1000.6;;;11.32;51.68
54459;BME280;40368;49.350;8.152;2023-02-22T01:30:15;1000.6;;;11.3;52.01
54459;BME280;40368;49.350;8.152;2023-02-22T01:32:14;1000.6;;;11.33;51.49
54459;BME280;40368;49.350;8.152;2023-02-22T01:33:14;1000.6;;;11.33;52.08
54459;BME280;40368;49.350;8.152;2023-02-22T01:34:08;1000.5;;;11.29;52.47
54459;BME280;40368;49.350;8.152;2023-02-22T01:35:18;1000.6;;;11.27;51.89
54459;BME280;40368;49.350;8.152;2023-02-22T01:36:14;1000.5;;;11.21;51.87
54459;BME280;40368;49.350;8.152;2023-02-22T01:37:14;1000.5;;;11.22;51.9
54459;BME280;40368;49.350;8.152;2023-02-22T01:39:14;1000.4;;;11.23;52.47
54459;BME280;40368;49.350;8.152;2023-02-22T01:40:16;1000.4;;;11.23;52.2
54459;BME280;40368;49.350;8.152;2023-02-22T01:41:14;1000.5;;;11.27;51.82
54459;BME280;40368;49.350;8.152;2023-02-22T01:43:19;1000.4;;;11.26;52.14
54459;BME280;40368;49.350;8.152;2023-02-22T01:44:33;1000.4;;;11.27;51.72
54459;BME280;40368;49.350;8.152;2023-02-22T01:46:06;1000.4;;;11.22;51.62
54459;BME280;40368;49.350;8.152;2023-02-22T01:47:01;1000.4;;;11.2;52.04
54459;BME280;40368;49.350;8.152;2023-02-22T01:48:16;1000.4;;;11.19;51.69
54459;BME280;40368;49.350;8.152;2023-02-22T01:49:31;1000.4;;;11.16;51.76
54459;BME280;40368;49.350;8.152;2023-02-22T01:50:08;1000.4;;;11.15;52.16
54459;BME280;40368;49.350;8.152;2023-02-22T01:50:46;1000.4;;;11.1;52.22
54459;BME280;40368;49.350;8.152;2023-02-22T01:52:14;1000.3;;;10.98;52.79
54459;BME280;40368;49.350;8.152;2023-02-22T01:54:15;1000.3;;;10.96;52.45
54459;BME280;40368;49.350;8.152;2023-02-22T01:55:14;1000.3;;;11;52.2
54459;BME280;40368;49.350;8.152;2023-02-22T01:56:52;1000.3;;;10.97;52.16
54459;BME280;40368;49.350;8.152;2023-02-22T01:57:28;1000.4;;;10.97;52.82
54459;BME280;40368;49.350;8.152;2023-02-22T01:58:45;1000.3;;;10.96;52.54
54459;BME280;40368;49.350;8.152;2023-02-22T01:59:59;1000.3;;;11;52.4
54459;BME280;40368;49.350;8.152;2023-02-22T02:01:13;1000.3;;;10.98;52.49
54459;BME280;40368;49.350;8.152;2023-02-22T02:01:51;1000.3;;;10.96;52.3
54459;BME280;40368;49.350;8.152;2023-02-22T02:02:28;1000.3;;;10.93;52.38
54459;BME280;40368;49.350;8.152;2023-02-22T02:03:14;1000.3;;;10.92;52.55
54459;BME280;40368;49.350;8.152;2023-02-22T02:04:16;1000.3;;;10.87;52.55
54459;BME280;40368;49.350;8.152;2023-02-22T02:05:14;1000.2;;;10.82;52.74
54459;BME280;40368;49.350;8.152;2023-02-22T02:06:14;1000.3;;;10.82;52.99
54459;BME280;40368;49.350;8.152;2023-02-22T02:07:16;1000.3;;;10.83;52.9
54459;BME280;40368;49.350;8.152;2023-02-22T02:08:17;1000.3;;;10.85;52.73
54459;BME280;40368;49.350;8.152;2023-02-22T02:09:16;1000.3;;;10.79;52.54
54459;BME280;40368;49.350;8.152;2023-02-22T02:11:15;1000.3;;;10.75;52.77
54459;BME280;40368;49.350;8.152;2023-02-22T02:12:14;1000.3;;;10.75;52.98
54459;BME280;40368;49.350;8.152;2023-02-22T02:13:14;1000.3;;;10.75;53.38
54459;BME280;40368;49.350;8.152;2023-02-22T02:14:14;1000.2;;;10.7;53.27
54459;BME280;40368;49.350;8.152;2023-02-22T02:15:16;1000.2;;;10.68;53.21
54459;BME280;40368;49.350;8.152;2023-02-22T02:16:14;1000.2;;;10.67;53.46
54459;BME280;40368;49.350;8.152;2023-02-22T02:17:15;1000.2;;;10.69;53.13
54459;BME280;40368;49.350;8.152;2023-02-22T02:19:17;1000.2;;;10.65;53.48
54459;BME280;40368;49.350;8.152;2023-02-22T02:20:16;1000.2;;;10.69;53.1
54459;BME280;40368;49.350;8.152;2023-02-22T02:21:22;1000.2;;;10.67;53.05
54459;BME280;40368;49.350;8.152;2023-02-22T02:22:18;1000.2;;;10.62;53.32
54459;BME280;40368;49.350;8.152;2023-02-22T02:23:22;1000.2;;;10.62;53.3
54459;BME280;40368;49.350;8.152;2023-02-22T02:24:20;1000.2;;;10.61;53.49
54459;BME280;40368;49.350;8.152;2023-02-22T02:25:51;1000.2;;;10.65;53.59
54459;BME280;40368;49.350;8.152;2023-02-22T02:26:22;1000.2;;;10.67;52.99
54459;BME280;40368;49.350;8.152;2023-02-22T02:27:16;1000.2;;;10.65;53.28
54459;BME280;40368;49.350;8.152;2023-02-22T02:28:23;1000.2;;;10.61;53.48
54459;BME280;40368;49.350;8.152;2023-02-22T02:29:27;1000.1;;;10.59;53.09
54459;BME280;40368;49.350;8.152;2023-02-22T02:30:21;1000.1;;;10.6;53.58
54459;BME280;40368;49.350;8.152;2023-02-22T02:32:16;1000.1;;;10.55;53.21
54459;BME280;40368;49.350;8.152;2023-02-22T02:32:17;1000.1;;;10.56;53.15
54459;BME280;40368;49.350;8.152;2023-02-22T02:33:14;1000.1;;;10.55;53.51
54459;BME280;40368;49.350;8.152;2023-02-22T02:34:15;1000.1;;;10.54;53.71
54459;BME280;40368;49.350;8.152;2023-02-22T02:36:15;1000.1;;;10.59;53.37
54459;BME280;40368;49.350;8.152;2023-02-22T02:37:16;1000.1;;;10.57;53.66
54459;BME280;40368;49.350;8.152;2023-02-22T02:38:16;1000.1;;;10.54;53.64
54459;BME280;40368;49.350;8.152;2023-02-22T02:39:15;1000;;;10.52;53.52
54459;BME280;40368;49.350;8.152;2023-02-22T02:40:17;1000.1;;;10.53;53.74
54459;BME280;40368;49.350;8.152;2023-02-22T02:41:15;1000;;;10.54;53.38
54459;BME280;40368;49.350;8.152;2023-02-22T02:42:15;1000;;;10.52;53.58
54459;BME280;40368;49.350;8.152;2023-02-22T02:43:16;1000;;;10.53;53.63
54459;BME280;40368;49.350;8.152;2023-02-22T02:44:15;1000;;;10.56;53.25
54459;BME280;40368;49.350;8.152;2023-02-22T02:45:15;1000;;;10.56;53.46
54459;BME280;40368;49.350;8.152;2023-02-22T02:46:14;1000;;;10.57;53.25
54459;BME280;40368;49.350;8.152;2023-02-22T02:48:14;1000;;;10.53;53.25
54459;BME280;40368;49.350;8.152;2023-02-22T02:49:15;1000;;;10.56;53.16
54459;BME280;40368;49.350;8.152;2023-02-22T02:50:15;1000;;;10.57;53.18
54459;BME280;40368;49.350;8.152;2023-02-22T02:52:14;1000;;;10.53;53.04
54459;BME280;40368;49.350;8.152;2023-02-22T02:53:14;1000;;;10.49;53.49
54459;BME280;40368;49.350;8.152;2023-02-22T02:54:14;1000;;;10.48;53.22
54459;BME280;40368;49.350;8.152;2023-02-22T02:56:14;1000;;;10.47;53.45
54459;BME280;40368;49.350;8.152;2023-02-22T02:57:32;1000;;;10.47;53.67
54459;BME280;40368;49.350;8.152;2023-02-22T02:58:48;999.9;;;10.51;53.53
54459;BME280;40368;49.350;8.152;2023-02-22T03:00:01;1000;;;10.53;53.26
54459;BME280;40368;49.350;8.152;2023-02-22T03:01:17;999.9;;;10.55;53.68
54459;BME280;40368;49.350;8.152;2023-02-22T03:02:34;1000;;;10.52;53.03
54459;BME280;40368;49.350;8.152;2023-02-22T03:03:47;999.9;;;10.51;53.46
54459;BME280;40368;49.350;8.152;2023-02-22T03:04:26;999.9;;;10.53;53.17
54459;BME280;40368;49.350;8.152;2023-02-22T03:05:18;999.9;;;10.49;53.08
54459;BME280;40368;49.350;8.152;2023-02-22T03:07:18;999.9;;;10.5;53.47
54459;BME280;40368;49.350;8.152;2023-02-22T03:08:15;999.9;;;10.5;53.16
54459;BME280;40368;49.350;8.152;2023-02-22T03:09:16;999.9;;;10.49;53.21
54459;BME280;40368;49.350;8.152;2023-02-22T03:11:15;999.9;;;10.5;53.22
54459;BME280;40368;49.350;8.152;2023-02-22T03:12:37;999.9;;;10.49;53.23
54459;BME280;40368;49.350;8.152;2023-02-22T03:13:49;999.8;;;10.47;53.25
54459;BME280;40368;49.350;8.152;2023-02-22T03:15:04;999.8;;;10.45;53.03
54459;BME280;40368;49.350;8.152;2023-02-22T03:16:16;999.8;;;10.41;53.37
54459;BME280;40368;49.350;8.152;2023-02-22T03:17:31;999.8;;;10.4;53.09
54459;BME280;40368;49.350;8.152;2023-02-22T03:18:08;999.8;;;10.38;53.21
54459;BME280;40368;49.350;8.152;2023-02-22T03:18:48;999.8;;;10.39;53.14
54459;BME280;40368;49.350;8.152;2023-02-22T03:20:15;999.8;;;10.39;53.04
54459;BME280;40368;49.350;8.152;2023-02-22T03:21:16;999.8;;;10.4;52.97
54459;BME280;40368;49.350;8.152;2023-02-22T03:22:15;999.8;;;10.36;53.04
54459;BME280;40368;49.350;8.152;2023-02-22T03:23:16;999.8;;;10.34;53.25
54459;BME280;40368;49.350;8.152;2023-02-22T03:24:15;999.8;;;10.31;53.23
54459;BME280;40368;49.350;8.152;2023-02-22T03:25:15;999.8;;;10.29;53.44
54459;BME280;40368;49.350;8.152;2023-02-22T03:26:15;999.8;;;10.34;53.38
54459;BME280;40368;49.350;8.152;2023-02-22T03:28:15;999.7;;;10.33;53.35
54459;BME280;40368;49.350;8.152;2023-02-22T03:29:14;999.8;;;10.3;53.24
54459;BME280;40368;49.350;8.152;2023-02-22T03:30:17;999.7;;;10.3;53.01
54459;BME280;40368;49.350;8.152;2023-02-22T03:31:14;999.7;;;10.26;53.61
54459;BME280;40368;49.350;8.152;2023-02-22T03:32:15;999.7;;;10.22;53.06
54459;BME280;40368;49.350;8.152;2023-02-22T03:34:14;999.7;;;10.25;53.26
54459;BME280;40368;49.350;8.152;2023-02-22T03:35:16;999.7;;;10.22;53.44
54459;BME280;40368;49.350;8.152;2023-02-22T03:36:14;999.7;;;10.22;53.45
54459;BME280;40368;49.350;8.152;2023-02-22T03:37:16;999.7;;;10.22;53.27
54459;BME280;40368;49.350;8.152;2023-02-22T03:38:15;999.7;;;10.22;53.51
54459;BME280;40368;49.350;8.152;2023-02-22T03:39:14;999.7;;;10.18;53.91
54459;BME280;40368;49.350;8.152;2023-02-22T03:40:15;999.7;;;10.16;53.38
54459;BME280;40368;49.350;8.152;2023-02-22T03:41:15;999.7;;;10.12;53.76
54459;BME280;40368;49.350;8.152;2023-02-22T03:42:15;999.7;;;10.1;53.6
54459;BME280;40368;49.350;8.152;2023-02-22T03:43:15;999.7;;;10.1;53.5
54459;BME280;40368;49.350;8.152;2023-02-22T03:44:15;999.7;;;10.13;53.85
54459;BME280;40368;49.350;8.152;2023-02-22T03:45:14;999.7;;;10.14;53.44
54459;BME280;40368;49.350;8.152;2023-02-22T03:46:14;999.7;;;10.18;53.47
54459;BME280;40368;49.350;8.152;2023-02-22T03:48:15;999.7;;;10.25;53.35
54459;BME280;40368;49.350;8.152;2023-02-22T03:49:16;999.7;;;10.31;53.66
54459;BME280;40368;49.350;8.152;2023-02-22T03:50:15;999.7;;;10.33;53.31
54459;BME280;40368;49.350;8.152;2023-02-22T03:51:14;999.7;;;10.37;53.55
54459;BME280;40368;49.350;8.152;2023-02-22T03:52:14;999.7;;;10.33;52.98
54459;BME280;40368;49.350;8.152;2023-02-22T03:53:14;999.8;;;10.3;53.08
54459;BME280;40368;49.350;8.152;2023-02-22T03:54:14;999.7;;;10.29;53.39
54459;BME280;40368;49.350;8.152;2023-02-22T03:55:14;999.7;;;10.29;53.09
54459;BME280;40368;49.350;8.152;2023-02-22T03:56:16;999.7;;;10.22;53.11
54459;BME280;40368;49.350;8.152;2023-02-22T03:57:34;999.7;;;10.22;53.64
54459;BME280;40368;49.350;8.152;2023-02-22T03:58:47;999.7;;;10.22;53.65
54459;BME280;40368;49.350;8.152;2023-02-22T04:00:20;999.7;;;10.25;53.56
54459;BME280;40368;49.350;8.152;2023-02-22T04:01:15;999.7;;;10.22;53.38
54459;BME280;40368;49.350;8.152;2023-02-22T04:02:29;999.7;;;10.17;53.81
54459;BME280;40368;49.350;8.152;2023-02-22T04:03:43;999.7;;;10.18;53.41
54459;BME280;40368;49.350;8.152;2023-02-22T04:05:34;999.7;;;10.2;53.42
54459;BME280;40368;49.350;8.152;2023-02-22T04:06:13;999.7;;;10.16;53.35
54459;BME280;40368;49.350;8.152;2023-02-22T04:06:52;999.7;;;10.14;53.95
54459;BME280;40368;49.350;8.152;2023-02-22T04:08:14;999.7;;;10.18;53.85
54459;BME280;40368;49.350;8.152;2023-02-22T04:09:14;999.7;;;10.17;53.6
54459;BME280;40368;49.350;8.152;2023-02-22T04:10:14;999.7;;;10.18;53.26
54459;BME280;40368;49.350;8.152;2023-02-22T04:11:14;999.7;;;10.14;53.43
54459;BME280;40368;49.350;8.152;2023-02-22T04:12:14;999.7;;;10.14;53.46
54459;BME280;40368;49.350;8.152;2023-02-22T04:13:14;999.7;;;10.14;53.49
54459;BME280;40368;49.350;8.152;2023-02-22T04:14:14;999.8;;;10.14;53.51
54459;BME280;40368;49.350;8.152;2023-02-22T04:15:38;999.7;;;10.14;53.19
54459;BME280;40368;49.350;8.152;2023-02-22T04:18:15;999.8;;;10.18;53.3
54459;BME280;40368;49.350;8.152;2023-02-22T04:19:14;999.8;;;10.18;52.88
54459;BME280;40368;49.350;8.152;2023-02-22T04:20:14;999.7;;;10.14;53.36
54459;BME280;40368;49.350;8.152;2023-02-22T04:21:14;999.7;;;10.1;52.92
54459;BME280;40368;49.350;8.152;2023-02-22T04:22:14;999.7;;;10.14;53.74
54459;BME280;40368;49.350;8.152;2023-02-22T04:23:14;999.8;;;10.21;53.12
54459;BME280;40368;49.350;8.152;2023-02-22T04:24:32;999.7;;;10.21;53.08
54459;BME280;40368;49.350;8.152;2023-02-22T04:25:47;999.7;;;10.2;53.04
54459;BME280;40368;49.350;8.152;2023-02-22T04:27:01;999.7;;;10.2;53.1
54459;BME280;40368;49.350;8.152;2023-02-22T04:27:56;999.7;;;10.16;53.52
54459;BME280;40368;49.350;8.152;2023-02-22T04:29:12;999.7;;;10.1;53.35
54459;BME280;40368;49.350;8.152;2023-02-22T04:30:26;999.6;;;10.1;53.32
54459;BME280;40368;49.350;8.152;2023-02-22T04:31:41;999.7;;;10.1;53.26
54459;BME280;40368;49.350;8.152;2023-02-22T04:33:32;999.7;;;10.09;53.33
54459;BME280;40368;49.350;8.152;2023-02-22T04:34:27;999.6;;;10.05;53.36
54459;BME280;40368;49.350;8.152;2023-02-22T04:34:48;999.7;;;10.08;53.44
54459;BME280;40368;49.350;8.152;2023-02-22T04:35:25;999.7;;;10.01;53.82
54459;BME280;40368;49.350;8.152;2023-02-22T04:36:14;999.7;;;10;53.64
54459;BME280;40368;49.350;8.152;2023-02-22T04:37:14;999.7;;;10.01;53.87
54459;BME280;40368;49.350;8.152;2023-02-22T04:38:14;999.7;;;10;53.55
54459;BME280;40368;49.350;8.152;2023-02-22T04:39:14;999.7;;;9.97;53.47
54459;BME280;40368;49.350;8.152;2023-02-22T04:40:14;999.7;;;9.93;54.06
54459;BME280;40368;49.350;8.152;2023-02-22T04:41:15;999.7;;;9.92;53.61
54459;BME280;40368;49.350;8.152;2023-02-22T04:42:33;999.6;;;9.87;53.51
54459;BME280;40368;49.350;8.152;2023-02-22T04:43:47;999.7;;;9.85;53.88
54459;BME280;40368;49.350;8.152;2023-02-22T04:45:01;999.7;;;9.82;53.52
54459;BME280;40368;49.350;8.152;2023-02-22T04:46:15;999.7;;;9.81;53.8
54459;BME280;40368;49.350;8.152;2023-02-22T04:47:29;999.7;;;9.8;53.76
54459;BME280;40368;49.350;8.152;2023-02-22T04:48:08;999.7;;;9.84;54.1
54459;BME280;40368;49.350;8.152;2023-02-22T04:48:45;999.7;;;9.84;53.61
54459;BME280;40368;49.350;8.152;2023-02-22T04:50:15;999.7;;;9.72;54.4
54459;BME280;40368;49.350;8.152;2023-02-22T04:51:14;999.7;;;9.71;53.72
54459;BME280;40368;49.350;8.152;2023-02-22T04:52:14;999.7;;;9.74;53.83
54459;BME280;40368;49.350;8.152;2023-02-22T04:53:14;999.7;;;9.72;53.83
54459;BME280;40368;49.350;8.152;2023-02-22T04:54:32;999.7;;;9.74;53.8
54459;BME280;40368;49.350;8.152;2023-02-22T04:56:05;999.7;;;9.72;53.9
54459;BME280;40368;49.350;8.152;2023-02-22T04:57:01;999.7;;;9.71;53.72
54459;BME280;40368;49.350;8.152;2023-02-22T04:58:15;999.7;;;9.71;53.58
54459;BME280;40368;49.350;8.152;2023-02-22T04:59:29;999.7;;;9.74;53.91
54459;BME280;40368;49.350;8.152;2023-02-22T05:00:08;999.7;;;9.71;53.81
54459;BME280;40368;49.350;8.152;2023-02-22T05:00:45;999.6;;;9.71;54
54459;BME280;40368;49.350;8.152;2023-02-22T05:01:22;999.7;;;9.72;53.98
54459;BME280;40368;49.350;8.152;2023-02-22T05:02:14;999.6;;;9.72;54.22
54459;BME280;40368;49.350;8.152;2023-02-22T05:03:14;999.6;;;9.77;54.41
54459;BME280;40368;49.350;8.152;2023-02-22T05:04:14;999.7;;;9.81;53.84
54459;BME280;40368;49.350;8.152;2023-02-22T05:05:14;999.6;;;9.82;53.88
54459;BME280;40368;49.350;8.152;2023-02-22T05:07:14;999.6;;;9.8;53.68
54459;BME280;40368;49.350;8.152;2023-02-22T05:08:32;999.6;;;9.76;54
54459;BME280;40368;49.350;8.152;2023-02-22T05:09:47;999.6;;;9.77;54.09
54459;BME280;40368;49.350;8.152;2023-02-22T05:11:01;999.6;;;9.77;54.2
54459;BME280;40368;49.350;8.152;2023-02-22T05:12:15;999.6;;;9.72;53.8
54459;BME280;40368;49.350;8.152;2023-02-22T05:13:29;999.6;;;9.72;53.77
54459;BME280;40368;49.350;8.152;2023-02-22T05:15:04;999.6;;;9.74;54.16
54459;BME280;40368;49.350;8.152;2023-02-22T05:15:59;999.6;;;9.75;54.16
54459;BME280;40368;49.350;8.152;2023-02-22T05:17:14;999.5;;;9.68;53.75
54459;BME280;40368;49.350;8.152;2023-02-22T05:19:07;999.5;;;9.68;53.68
54459;BME280;40368;49.350;8.152;2023-02-22T05:20:58;999.6;;;9.7;53.82
54459;BME280;40368;49.350;8.152;2023-02-22T05:27:29;999.6;;;9.68;54.17
54459;BME280;40368;49.350;8.152;2023-02-22T05:28:07;999.6;;;9.67;53.7
54459;BME280;40368;49.350;8.152;2023-02-22T05:28:43;999.6;;;9.68;53.54
54459;BME280;40368;49.350;8.152;2023-02-22T05:30:35;999.6;;;9.67;54.21
54459;BME280;40368;49.350;8.152;2023-02-22T05:32:26;999.6;;;9.72;53.57
54459;BME280;40368;49.350;8.152;2023-02-22T05:33:40;999.6;;;9.76;53.42
54459;BME280;40368;49.350;8.152;2023-02-22T05:34:19;999.6;;;9.71;53.45
54459;BME280;40368;49.350;8.152;2023-02-22T05:34:56;999.5;;;9.66;53.91
54459;BME280;40368;49.350;8.152;2023-02-22T05:35:52;999.5;;;9.67;53.85
54459;BME280;40368;49.350;8.152;2023-02-22T05:36:11;999.6;;;9.66;54.06
54459;BME280;40368;49.350;8.152;2023-02-22T05:36:47;999.6;;;9.68;53.56
54459;BME280;40368;49.350;8.152;2023-02-22T05:37:06;999.6;;;9.72;53.35
54459;BME280;40368;49.350;8.152;2023-02-22T05:37:24;999.6;;;9.76;54.09
54459;BME280;40368;49.350;8.152;2023-02-22T05:38:01;999.6;;;9.68;53.56
54459;BME280;40368;49.350;8.152;2023-02-22T05:38:20;999.5;;;9.74;54.01
54459;BME280;40368;49.350;8.152;2023-02-22T05:38:57;999.6;;;9.64;53.68
54459;BME280;40368;49.350;8.152;2023-02-22T05:39:15;999.6;;;9.72;54.18
54459;BME280;40368;49.350;8.152;2023-02-22T05:39:52;999.6;;;9.67;53.5
54459;BME280;40368;49.350;8.152;2023-02-22T05:40:30;999.6;;;9.64;53.6
54459;BME280;40368;49.350;8.152;2023-02-22T05:41:23;999.6;;;9.64;53.6
54459;BME280;40368;49.350;8.152;2023-02-22T05:42:14;999.6;;;9.63;54.25
54459;BME280;40368;49.350;8.152;2023-02-22T05:43:32;999.6;;;9.59;53.88
54459;BME280;40368;49.350;8.152;2023-02-22T05:44:46;999.6;;;9.59;54.14
54459;BME280;40368;49.350;8.152;2023-02-22T05:46:01;999.6;;;9.59;54
54459;BME280;40368;49.350;8.152;2023-02-22T05:47:15;999.6;;;9.53;53.85
54459;BME280;40368;49.350;8.152;2023-02-22T05:48:29;999.6;;;9.53;53.97
54459;BME280;40368;49.350;8.152;2023-02-22T05:49:43;999.6;;;9.51;53.99
54459;BME280;40368;49.350;8.152;2023-02-22T05:51:34;999.6;;;9.52;54.69
54459;BME280;40368;49.350;8.152;2023-02-22T05:53:09;999.6;;;9.56;54.5
54459;BME280;40368;49.350;8.152;2023-02-22T05:53:27;999.6;;;9.49;54.35
54459;BME280;40368;49.350;8.152;2023-02-22T05:55:15;999.5;;;9.58;54.05
54459;BME280;40368;49.350;8.152;2023-02-22T05:56:18;999.6;;;9.59;54
54459;BME280;40368;49.350;8.152;2023-02-22T05:57:14;999.5;;;9.59;53.96
54459;BME280;40368;49.350;8.152;2023-02-22T05:59:14;999.5;;;9.53;53.75
54459;BME280;40368;49.350;8.152;2023-02-22T06:00:16;999.5;;;9.5;54.53
54459;BME280;40368;49.350;8.152;2023-02-22T06:01:51;999.4;;;9.47;53.94
54459;BME280;40368;49.350;8.152;2023-02-22T06:04:19;999.5;;;9.47;53.92
54459;BME280;40368;49.350;8.152;2023-02-22T06:10:32;999.5;;;9.52;54.26
54459;BME280;40368;49.350;8.152;2023-02-22T06:11:46;999.5;;;9.53;54.34
54459;BME280;40368;49.350;8.152;2023-02-22T06:12:04;999.5;;;9.54;53.9
54459;BME280;40368;49.350;8.152;2023-02-22T06:12:41;999.5;;;9.54;54.05
54459;BME280;40368;49.350;8.152;2023-02-22T06:14:33;999.5;;;9.53;53.81
54459;BME280;40368;49.350;8.152;2023-02-22T06:16:26;999.5;;;9.49;53.81
54459;BME280;40368;49.350;8.152;2023-02-22T06:17:05;999.5;;;9.47;53.91
54459;BME280;40368;49.350;8.152;2023-02-22T06:17:23;999.5;;;9.51;53.85
54459;BME280;40368;49.350;8.152;2023-02-22T06:18:01;999.5;;;9.49;54.13
54459;BME280;40368;49.350;8.152;2023-02-22T06:18:19;999.5;;;9.53;54.11
54459;BME280;40368;49.350;8.152;2023-02-22T06:18:56;999.5;;;9.47;54.19
54459;BME280;40368;49.350;8.152;2023-02-22T06:19:14;999.5;;;9.52;54.21
54459;BME280;40368;49.350;8.152;2023-02-22T06:19:52;999.5;;;9.43;54.17
54459;BME280;40368;49.350;8.152;2023-02-22T06:20:11;999.5;;;9.49;54.15
54459;BME280;40368;49.350;8.152;2023-02-22T06:20:47;999.5;;;9.43;54.71
54459;BME280;40368;49.350;8.152;2023-02-22T06:21:08;999.5;;;9.5;53.89
54459;BME280;40368;49.350;8.152;2023-02-22T06:21:24;999.4;;;9.49;54.49